Mohns Hill, Pennsylvania
Current Conditions -  °F | °C
As of 4:14 AM on Friday 24 Oct 2014 (Local Time) from KRDG Reporting Station
Overcast Overcast  
Wind Chill: 56°   Ceiling: 3000
Heat Index: 56°   Visibility: 10mi
Dew Point: 45°   Wind: 7mph
Humidity: 67%   Direction: NA
Pressure: 29.86"   Gusts: NA
Location:  40.3199°N, 76.0339°W
Report Text: KRDG 240814Z VRB06KT 10SM OVC030 13/07 A2986 RMK AO2 T01330072
Loading
Personal Weather Stations






























Interactive Weather Map
Tropical Storm Tracking
New forecast layout! Learn more

10-Day Weather Forecast

Advertisements
Track Severe Weather on mobile